sensor_id;sensor_type;location;lat;lon;timestamp;P1;durP1;ratioP1;P2;durP2;ratioP2
20527;SDS011;23612;50.894;10.700;2023-11-21T00:00:15;6.13;;;2.42;;
20527;SDS011;23612;50.894;10.700;2023-11-21T00:02:41;5.45;;;2.15;;
20527;SDS011;23612;50.894;10.700;2023-11-21T00:05:10;2.20;;;1.58;;
20527;SDS011;23612;50.894;10.700;2023-11-21T00:07:39;4.40;;;2.03;;
20527;SDS011;23612;50.894;10.700;2023-11-21T00:10:05;4.50;;;2.60;;
20527;SDS011;23612;50.894;10.700;2023-11-21T00:12:33;2.38;;;1.70;;
20527;SDS011;23612;50.894;10.700;2023-11-21T00:14:58;3.75;;;2.25;;
20527;SDS011;23612;50.894;10.700;2023-11-21T00:17:24;2.90;;;2.20;;
20527;SDS011;23612;50.894;10.700;2023-11-21T00:19:50;2.90;;;2.00;;
20527;SDS011;23612;50.894;10.700;2023-11-21T00:22:17;5.22;;;2.50;;
20527;SDS011;23612;50.894;10.700;2023-11-21T00:24:43;3.47;;;2.05;;
20527;SDS011;23612;50.894;10.700;2023-11-21T00:27:09;3.30;;;1.98;;
20527;SDS011;23612;50.894;10.700;2023-11-21T00:29:34;4.30;;;2.00;;
20527;SDS011;23612;50.894;10.700;2023-11-21T00:32:00;3.15;;;1.92;;
20527;SDS011;23612;50.894;10.700;2023-11-21T00:34:25;2.10;;;1.73;;
20527;SDS011;23612;50.894;10.700;2023-11-21T00:36:51;5.38;;;1.80;;
20527;SDS011;23612;50.894;10.700;2023-11-21T00:39:17;1.55;;;1.45;;
20527;SDS011;23612;50.894;10.700;2023-11-21T00:41:42;3.03;;;1.45;;
20527;SDS011;23612;50.894;10.700;2023-11-21T00:44:09;2.65;;;1.52;;
20527;SDS011;23612;50.894;10.700;2023-11-21T00:46:35;2.70;;;1.45;;
20527;SDS011;23612;50.894;10.700;2023-11-21T00:49:01;4.35;;;1.60;;
20527;SDS011;23612;50.894;10.700;2023-11-21T00:51:29;3.45;;;1.60;;
20527;SDS011;23612;50.894;10.700;2023-11-21T00:53:54;1.98;;;1.60;;
20527;SDS011;23612;50.894;10.700;2023-11-21T00:56:20;3.28;;;1.55;;
20527;SDS011;23612;50.894;10.700;2023-11-21T00:58:45;2.75;;;1.65;;
20527;SDS011;23612;50.894;10.700;2023-11-21T01:01:14;1.98;;;1.50;;
20527;SDS011;23612;50.894;10.700;2023-11-21T01:03:40;2.78;;;1.60;;
20527;SDS011;23612;50.894;10.700;2023-11-21T01:06:06;4.93;;;2.33;;
20527;SDS011;23612;50.894;10.700;2023-11-21T01:08:32;1.67;;;1.50;;
20527;SDS011;23612;50.894;10.700;2023-11-21T01:10:58;2.50;;;1.85;;
20527;SDS011;23612;50.894;10.700;2023-11-21T01:13:23;3.20;;;1.63;;
20527;SDS011;23612;50.894;10.700;2023-11-21T01:15:53;7.00;;;2.78;;
20527;SDS011;23612;50.894;10.700;2023-11-21T01:18:19;3.50;;;2.60;;
20527;SDS011;23612;50.894;10.700;2023-11-21T01:20:44;3.90;;;2.38;;
20527;SDS011;23612;50.894;10.700;2023-11-21T01:23:11;5.70;;;2.42;;
20527;SDS011;23612;50.894;10.700;2023-11-21T01:25:38;4.25;;;2.80;;
20527;SDS011;23612;50.894;10.700;2023-11-21T01:28:03;6.07;;;2.78;;
20527;SDS011;23612;50.894;10.700;2023-11-21T01:30:29;3.42;;;2.95;;
20527;SDS011;23612;50.894;10.700;2023-11-21T01:32:54;4.82;;;2.50;;
20527;SDS011;23612;50.894;10.700;2023-11-21T01:35:20;2.60;;;2.33;;
20527;SDS011;23612;50.894;10.700;2023-11-21T01:37:45;5.20;;;2.30;;
20527;SDS011;23612;50.894;10.700;2023-11-21T01:40:13;4.93;;;2.80;;
20527;SDS011;23612;50.894;10.700;2023-11-21T01:42:39;4.82;;;2.38;;
20527;SDS011;23612;50.894;10.700;2023-11-21T01:45:05;4.07;;;2.75;;
20527;SDS011;23612;50.894;10.700;2023-11-21T01:47:34;3.00;;;2.53;;
20527;SDS011;23612;50.894;10.700;2023-11-21T01:50:01;5.05;;;2.75;;
20527;SDS011;23612;50.894;10.700;2023-11-21T01:52:29;2.70;;;2.50;;
20527;SDS011;23612;50.894;10.700;2023-11-21T01:54:55;6.03;;;2.72;;
20527;SDS011;23612;50.894;10.700;2023-11-21T01:57:22;3.75;;;2.40;;
20527;SDS011;23612;50.894;10.700;2023-11-21T01:59:47;3.95;;;2.90;;
20527;SDS011;23612;50.894;10.700;2023-11-21T02:02:14;3.95;;;2.67;;
20527;SDS011;23612;50.894;10.700;2023-11-21T02:04:41;3.47;;;2.40;;
20527;SDS011;23612;50.894;10.700;2023-11-21T02:07:07;6.43;;;2.95;;
20527;SDS011;23612;50.894;10.700;2023-11-21T02:09:32;4.65;;;2.60;;
20527;SDS011;23612;50.894;10.700;2023-11-21T02:11:58;6.55;;;2.92;;
20527;SDS011;23612;50.894;10.700;2023-11-21T02:14:25;5.82;;;2.58;;
20527;SDS011;23612;50.894;10.700;2023-11-21T02:16:52;4.30;;;2.45;;
20527;SDS011;23612;50.894;10.700;2023-11-21T02:19:19;2.83;;;2.30;;
20527;SDS011;23612;50.894;10.700;2023-11-21T02:21:47;2.65;;;2.40;;
20527;SDS011;23612;50.894;10.700;2023-11-21T02:24:20;3.67;;;2.10;;
20527;SDS011;23612;50.894;10.700;2023-11-21T02:26:47;2.67;;;2.20;;
20527;SDS011;23612;50.894;10.700;2023-11-21T02:29:13;4.22;;;2.72;;
20527;SDS011;23612;50.894;10.700;2023-11-21T02:31:41;2.63;;;2.35;;
20527;SDS011;23612;50.894;10.700;2023-11-21T02:34:15;4.10;;;2.47;;
20527;SDS011;23612;50.894;10.700;2023-11-21T02:36:42;8.52;;;2.92;;
20527;SDS011;23612;50.894;10.700;2023-11-21T02:39:08;7.03;;;3.28;;
20527;SDS011;23612;50.894;10.700;2023-11-21T02:41:35;5.78;;;2.20;;
20527;SDS011;23612;50.894;10.700;2023-11-21T02:44:01;4.68;;;2.40;;
20527;SDS011;23612;50.894;10.700;2023-11-21T02:46:26;3.05;;;2.25;;
20527;SDS011;23612;50.894;10.700;2023-11-21T02:48:52;4.93;;;1.98;;
20527;SDS011;23612;50.894;10.700;2023-11-21T02:51:21;3.88;;;1.60;;
20527;SDS011;23612;50.894;10.700;2023-11-21T02:53:46;4.93;;;1.65;;
20527;SDS011;23612;50.894;10.700;2023-11-21T02:56:12;3.28;;;2.03;;
20527;SDS011;23612;50.894;10.700;2023-11-21T02:58:41;3.72;;;1.50;;
20527;SDS011;23612;50.894;10.700;2023-11-21T03:01:08;2.60;;;1.50;;
20527;SDS011;23612;50.894;10.700;2023-11-21T03:03:34;2.70;;;1.85;;
20527;SDS011;23612;50.894;10.700;2023-11-21T03:06:02;6.53;;;1.90;;
20527;SDS011;23612;50.894;10.700;2023-11-21T03:08:27;3.72;;;1.55;;
20527;SDS011;23612;50.894;10.700;2023-11-21T03:10:53;3.25;;;1.55;;
20527;SDS011;23612;50.894;10.700;2023-11-21T03:13:18;2.60;;;1.42;;
20527;SDS011;23612;50.894;10.700;2023-11-21T03:15:44;4.22;;;1.83;;
20527;SDS011;23612;50.894;10.700;2023-11-21T03:18:09;4.20;;;1.70;;
20527;SDS011;23612;50.894;10.700;2023-11-21T03:20:35;2.33;;;1.60;;
20527;SDS011;23612;50.894;10.700;2023-11-21T03:23:01;2.90;;;1.77;;
20527;SDS011;23612;50.894;10.700;2023-11-21T03:25:26;1.63;;;1.52;;
20527;SDS011;23612;50.894;10.700;2023-11-21T03:27:52;3.03;;;1.60;;
20527;SDS011;23612;50.894;10.700;2023-11-21T03:30:18;2.53;;;1.70;;
20527;SDS011;23612;50.894;10.700;2023-11-21T03:32:44;1.88;;;1.70;;
20527;SDS011;23612;50.894;10.700;2023-11-21T03:35:09;2.42;;;1.80;;
20527;SDS011;23612;50.894;10.700;2023-11-21T03:37:35;4.38;;;1.85;;
20527;SDS011;23612;50.894;10.700;2023-11-21T03:40:00;2.97;;;2.13;;
20527;SDS011;23612;50.894;10.700;2023-11-21T03:42:28;4.38;;;2.10;;
20527;SDS011;23612;50.894;10.700;2023-11-21T03:44:54;3.75;;;2.00;;
20527;SDS011;23612;50.894;10.700;2023-11-21T03:47:19;6.10;;;1.80;;
20527;SDS011;23612;50.894;10.700;2023-11-21T03:49:45;3.53;;;1.85;;
20527;SDS011;23612;50.894;10.700;2023-11-21T03:52:11;4.72;;;1.83;;
20527;SDS011;23612;50.894;10.700;2023-11-21T03:54:37;1.73;;;1.63;;
20527;SDS011;23612;50.894;10.700;2023-11-21T03:57:02;3.65;;;1.90;;
20527;SDS011;23612;50.894;10.700;2023-11-21T03:59:28;1.80;;;1.67;;
20527;SDS011;23612;50.894;10.700;2023-11-21T04:01:57;3.80;;;1.60;;
20527;SDS011;23612;50.894;10.700;2023-11-21T04:04:22;3.15;;;1.92;;
20527;SDS011;23612;50.894;10.700;2023-11-21T04:06:48;3.45;;;2.35;;
20527;SDS011;23612;50.894;10.700;2023-11-21T04:09:14;3.95;;;2.25;;
20527;SDS011;23612;50.894;10.700;2023-11-21T04:11:39;3.67;;;1.98;;
20527;SDS011;23612;50.894;10.700;2023-11-21T04:14:05;3.65;;;2.30;;
20527;SDS011;23612;50.894;10.700;2023-11-21T04:16:30;3.42;;;2.00;;
20527;SDS011;23612;50.894;10.700;2023-11-21T04:18:56;2.40;;;2.20;;
20527;SDS011;23612;50.894;10.700;2023-11-21T04:21:22;6.65;;;2.40;;
20527;SDS011;23612;50.894;10.700;2023-11-21T04:23:49;7.20;;;3.00;;
20527;SDS011;23612;50.894;10.700;2023-11-21T04:26:14;2.63;;;2.05;;
20527;SDS011;23612;50.894;10.700;2023-11-21T04:28:40;2.40;;;2.20;;
20527;SDS011;23612;50.894;10.700;2023-11-21T04:31:05;6.10;;;2.75;;
20527;SDS011;23612;50.894;10.700;2023-11-21T04:33:32;4.97;;;2.70;;
20527;SDS011;23612;50.894;10.700;2023-11-21T04:35:57;4.68;;;2.72;;
20527;SDS011;23612;50.894;10.700;2023-11-21T04:38:23;5.65;;;2.75;;
20527;SDS011;23612;50.894;10.700;2023-11-21T04:40:48;3.95;;;3.00;;
20527;SDS011;23612;50.894;10.700;2023-11-21T04:43:14;5.88;;;2.60;;
20527;SDS011;23612;50.894;10.700;2023-11-21T04:45:39;4.80;;;2.17;;
20527;SDS011;23612;50.894;10.700;2023-11-21T04:48:06;3.80;;;2.15;;
20527;SDS011;23612;50.894;10.700;2023-11-21T04:50:33;3.70;;;2.05;;
20527;SDS011;23612;50.894;10.700;2023-11-21T04:52:59;2.08;;;1.83;;
20527;SDS011;23612;50.894;10.700;2023-11-21T04:55:24;2.55;;;2.35;;
20527;SDS011;23612;50.894;10.700;2023-11-21T04:57:52;2.95;;;2.33;;
20527;SDS011;23612;50.894;10.700;2023-11-21T05:00:18;4.57;;;2.67;;
20527;SDS011;23612;50.894;10.700;2023-11-21T05:02:45;3.08;;;2.20;;
20527;SDS011;23612;50.894;10.700;2023-11-21T05:05:10;3.38;;;2.03;;
20527;SDS011;23612;50.894;10.700;2023-11-21T05:07:36;3.25;;;2.28;;
20527;SDS011;23612;50.894;10.700;2023-11-21T05:10:03;4.68;;;2.20;;
20527;SDS011;23612;50.894;10.700;2023-11-21T05:12:32;3.22;;;2.60;;
20527;SDS011;23612;50.894;10.700;2023-11-21T05:15:01;8.07;;;2.75;;
20527;SDS011;23612;50.894;10.700;2023-11-21T05:17:32;25.00;;;2.90;;
20527;SDS011;23612;50.894;10.700;2023-11-21T05:19:59;13.73;;;2.50;;
20527;SDS011;23612;50.894;10.700;2023-11-21T05:22:25;3.40;;;2.33;;
20527;SDS011;23612;50.894;10.700;2023-11-21T05:24:51;22.35;;;2.17;;
20527;SDS011;23612;50.894;10.700;2023-11-21T05:27:17;4.10;;;2.35;;
20527;SDS011;23612;50.894;10.700;2023-11-21T05:29:42;6.93;;;2.63;;
20527;SDS011;23612;50.894;10.700;2023-11-21T05:32:08;7.88;;;2.72;;
20527;SDS011;23612;50.894;10.700;2023-11-21T05:34:34;12.45;;;2.97;;
20527;SDS011;23612;50.894;10.700;2023-11-21T05:36:59;24.63;;;3.30;;
20527;SDS011;23612;50.894;10.700;2023-11-21T05:39:25;8.02;;;3.38;;
20527;SDS011;23612;50.894;10.700;2023-11-21T05:41:50;9.82;;;4.15;;
20527;SDS011;23612;50.894;10.700;2023-11-21T05:44:16;7.35;;;4.30;;
20527;SDS011;23612;50.894;10.700;2023-11-21T05:46:41;11.02;;;4.00;;
20527;SDS011;23612;50.894;10.700;2023-11-21T05:49:08;8.82;;;4.10;;
20527;SDS011;23612;50.894;10.700;2023-11-21T05:51:33;6.90;;;3.97;;
20527;SDS011;23612;50.894;10.700;2023-11-21T05:53:59;7.88;;;3.75;;
20527;SDS011;23612;50.894;10.700;2023-11-21T05:56:24;7.18;;;3.83;;
20527;SDS011;23612;50.894;10.700;2023-11-21T05:58:50;17.70;;;4.57;;
20527;SDS011;23612;50.894;10.700;2023-11-21T06:01:16;9.52;;;3.60;;
20527;SDS011;23612;50.894;10.700;2023-11-21T06:03:41;14.40;;;5.25;;
20527;SDS011;23612;50.894;10.700;2023-11-21T06:06:08;14.68;;;7.95;;
20527;SDS011;23612;50.894;10.700;2023-11-21T06:08:33;18.02;;;7.63;;
20527;SDS011;23612;50.894;10.700;2023-11-21T06:10:59;11.27;;;6.50;;
20527;SDS011;23612;50.894;10.700;2023-11-21T06:13:24;10.57;;;5.07;;
20527;SDS011;23612;50.894;10.700;2023-11-21T06:15:50;10.00;;;4.38;;
20527;SDS011;23612;50.894;10.700;2023-11-21T06:18:16;15.45;;;5.47;;
20527;SDS011;23612;50.894;10.700;2023-11-21T06:20:44;14.70;;;5.28;;
20527;SDS011;23612;50.894;10.700;2023-11-21T06:23:10;11.73;;;5.90;;
20527;SDS011;23612;50.894;10.700;2023-11-21T06:25:36;17.40;;;7.10;;
20527;SDS011;23612;50.894;10.700;2023-11-21T06:28:01;27.70;;;7.82;;
20527;SDS011;23612;50.894;10.700;2023-11-21T06:30:27;13.07;;;6.85;;
20527;SDS011;23612;50.894;10.700;2023-11-21T06:32:53;52.15;;;8.23;;
20527;SDS011;23612;50.894;10.700;2023-11-21T06:35:19;39.90;;;8.43;;
20527;SDS011;23612;50.894;10.700;2023-11-21T06:37:45;21.83;;;7.43;;
20527;SDS011;23612;50.894;10.700;2023-11-21T06:40:14;38.03;;;8.05;;
20527;SDS011;23612;50.894;10.700;2023-11-21T06:42:40;47.33;;;17.10;;
20527;SDS011;23612;50.894;10.700;2023-11-21T06:45:06;53.78;;;24.30;;
20527;SDS011;23612;50.894;10.700;2023-11-21T06:47:32;73.20;;;25.90;;
20527;SDS011;23612;50.894;10.700;2023-11-21T06:49:58;76.40;;;28.70;;
20527;SDS011;23612;50.894;10.700;2023-11-21T06:52:24;45.88;;;18.67;;
20527;SDS011;23612;50.894;10.700;2023-11-21T06:54:49;45.05;;;14.45;;
20527;SDS011;23612;50.894;10.700;2023-11-21T06:57:15;29.42;;;12.18;;
20527;SDS011;23612;50.894;10.700;2023-11-21T06:59:41;25.35;;;9.55;;
20527;SDS011;23612;50.894;10.700;2023-11-21T07:02:06;37.30;;;7.55;;
20527;SDS011;23612;50.894;10.700;2023-11-21T07:04:33;16.40;;;9.25;;
20527;SDS011;23612;50.894;10.700;2023-11-21T07:06:58;22.23;;;8.40;;
20527;SDS011;23612;50.894;10.700;2023-11-21T07:09:24;10.10;;;5.75;;
20527;SDS011;23612;50.894;10.700;2023-11-21T07:11:51;9.38;;;4.50;;
20527;SDS011;23612;50.894;10.700;2023-11-21T07:14:17;16.77;;;7.47;;
20527;SDS011;23612;50.894;10.700;2023-11-21T07:16:44;23.95;;;8.27;;
20527;SDS011;23612;50.894;10.700;2023-11-21T07:19:11;20.05;;;9.93;;
20527;SDS011;23612;50.894;10.700;2023-11-21T07:21:37;10.70;;;5.78;;
20527;SDS011;23612;50.894;10.700;2023-11-21T07:24:04;29.45;;;4.35;;
20527;SDS011;23612;50.894;10.700;2023-11-21T07:26:31;8.13;;;3.75;;
20527;SDS011;23612;50.894;10.700;2023-11-21T07:28:56;10.52;;;3.83;;
20527;SDS011;23612;50.894;10.700;2023-11-21T07:31:22;16.17;;;5.75;;
20527;SDS011;23612;50.894;10.700;2023-11-21T07:33:49;18.02;;;7.90;;
20527;SDS011;23612;50.894;10.700;2023-11-21T07:36:15;18.02;;;5.30;;
20527;SDS011;23612;50.894;10.700;2023-11-21T07:38:43;19.63;;;4.15;;
20527;SDS011;23612;50.894;10.700;2023-11-21T07:41:09;12.05;;;3.92;;
20527;SDS011;23612;50.894;10.700;2023-11-21T07:43:36;7.65;;;3.53;;
20527;SDS011;23612;50.894;10.700;2023-11-21T07:46:05;5.95;;;3.28;;
20527;SDS011;23612;50.894;10.700;2023-11-21T07:48:30;17.92;;;7.75;;
20527;SDS011;23612;50.894;10.700;2023-11-21T07:50:56;15.88;;;3.63;;
20527;SDS011;23612;50.894;10.700;2023-11-21T07:53:23;20.52;;;4.10;;
20527;SDS011;23612;50.894;10.700;2023-11-21T07:55:50;75.55;;;33.78;;
20527;SDS011;23612;50.894;10.700;2023-11-21T07:58:16;8.45;;;4.25;;
20527;SDS011;23612;50.894;10.700;2023-11-21T08:00:41;16.73;;;3.03;;
20527;SDS011;23612;50.894;10.700;2023-11-21T08:03:07;9.80;;;3.20;;
20527;SDS011;23612;50.894;10.700;2023-11-21T08:05:32;9.60;;;2.97;;
20527;SDS011;23612;50.894;10.700;2023-11-21T08:07:58;12.73;;;5.18;;
20527;SDS011;23612;50.894;10.700;2023-11-21T08:10:23;16.30;;;4.88;;
20527;SDS011;23612;50.894;10.700;2023-11-21T08:12:50;11.25;;;5.50;;
20527;SDS011;23612;50.894;10.700;2023-11-21T08:15:15;9.48;;;4.80;;
20527;SDS011;23612;50.894;10.700;2023-11-21T08:17:41;8.32;;;4.22;;
20527;SDS011;23612;50.894;10.700;2023-11-21T08:20:06;6.95;;;4.95;;
20527;SDS011;23612;50.894;10.700;2023-11-21T08:22:33;7.28;;;3.97;;
20527;SDS011;23612;50.894;10.700;2023-11-21T08:24:59;22.33;;;17.45;;
20527;SDS011;23612;50.894;10.700;2023-11-21T08:27:25;7.53;;;4.45;;
20527;SDS011;23612;50.894;10.700;2023-11-21T08:29:50;8.13;;;3.50;;
20527;SDS011;23612;50.894;10.700;2023-11-21T08:32:17;5.32;;;4.10;;
20527;SDS011;23612;50.894;10.700;2023-11-21T08:34:43;5.55;;;4.38;;
20527;SDS011;23612;50.894;10.700;2023-11-21T08:37:09;5.47;;;4.18;;
20527;SDS011;23612;50.894;10.700;2023-11-21T08:39:36;11.20;;;5.07;;
20527;SDS011;23612;50.894;10.700;2023-11-21T08:42:03;12.80;;;4.88;;
20527;SDS011;23612;50.894;10.700;2023-11-21T08:44:28;9.63;;;5.53;;
20527;SDS011;23612;50.894;10.700;2023-11-21T08:46:55;12.13;;;6.40;;
20527;SDS011;23612;50.894;10.700;2023-11-21T08:49:20;11.25;;;7.13;;
20527;SDS011;23612;50.894;10.700;2023-11-21T08:51:46;15.32;;;9.65;;
20527;SDS011;23612;50.894;10.700;2023-11-21T08:54:12;9.68;;;6.05;;
20527;SDS011;23612;50.894;10.700;2023-11-21T08:56:39;9.38;;;5.38;;
20527;SDS011;23612;50.894;10.700;2023-11-21T08:59:04;8.85;;;5.85;;
20527;SDS011;23612;50.894;10.700;2023-11-21T09:01:30;13.05;;;8.15;;
20527;SDS011;23612;50.894;10.700;2023-11-21T09:03:57;16.20;;;8.88;;
20527;SDS011;23612;50.894;10.700;2023-11-21T09:06:23;12.52;;;8.02;;
20527;SDS011;23612;50.894;10.700;2023-11-21T09:08:49;13.10;;;7.50;;
20527;SDS011;23612;50.894;10.700;2023-11-21T09:11:14;14.10;;;9.73;;
20527;SDS011;23612;50.894;10.700;2023-11-21T09:13:40;18.77;;;11.85;;
20527;SDS011;23612;50.894;10.700;2023-11-21T09:16:05;14.38;;;8.52;;
20527;SDS011;23612;50.894;10.700;2023-11-21T09:18:31;10.05;;;6.40;;
20527;SDS011;23612;50.894;10.700;2023-11-21T09:20:57;10.73;;;6.63;;
20527;SDS011;23612;50.894;10.700;2023-11-21T09:23:23;15.57;;;7.47;;
20527;SDS011;23612;50.894;10.700;2023-11-21T09:25:49;16.25;;;7.93;;
20527;SDS011;23612;50.894;10.700;2023-11-21T09:28:16;14.30;;;7.82;;
20527;SDS011;23612;50.894;10.700;2023-11-21T09:30:42;15.50;;;8.10;;
20527;SDS011;23612;50.894;10.700;2023-11-21T09:33:08;17.75;;;7.72;;
20527;SDS011;23612;50.894;10.700;2023-11-21T09:35:35;14.75;;;8.98;;
20527;SDS011;23612;50.894;10.700;2023-11-21T09:38:04;16.73;;;8.82;;
20527;SDS011;23612;50.894;10.700;2023-11-21T09:40:36;17.30;;;10.00;;
20527;SDS011;23612;50.894;10.700;2023-11-21T09:43:22;15.38;;;9.57;;
20527;SDS011;23612;50.894;10.700;2023-11-21T09:45:54;19.17;;;13.23;;
20527;SDS011;23612;50.894;10.700;2023-11-21T09:48:29;34.65;;;23.58;;
20527;SDS011;23612;50.894;10.700;2023-11-21T09:50:56;27.50;;;13.80;;
20527;SDS011;23612;50.894;10.700;2023-11-21T09:53:22;20.17;;;12.23;;
20527;SDS011;23612;50.894;10.700;2023-11-21T09:55:50;16.27;;;11.20;;
20527;SDS011;23612;50.894;10.700;2023-11-21T09:58:17;19.63;;;12.25;;
20527;SDS011;23612;50.894;10.700;2023-11-21T10:00:50;20.00;;;12.80;;
20527;SDS011;23612;50.894;10.700;2023-11-21T10:03:18;28.15;;;16.05;;
20527;SDS011;23612;50.894;10.700;2023-11-21T10:05:44;22.10;;;12.25;;
20527;SDS011;23612;50.894;10.700;2023-11-21T10:08:11;24.50;;;13.20;;
20527;SDS011;23612;50.894;10.700;2023-11-21T10:10:38;25.27;;;16.15;;
20527;SDS011;23612;50.894;10.700;2023-11-21T10:13:14;22.33;;;14.65;;
20527;SDS011;23612;50.894;10.700;2023-11-21T10:15:42;33.30;;;18.38;;
20527;SDS011;23612;50.894;10.700;2023-11-21T10:18:13;25.17;;;13.00;;
20527;SDS011;23612;50.894;10.700;2023-11-21T10:20:40;27.08;;;15.07;;
20527;SDS011;23612;50.894;10.700;2023-11-21T10:23:06;28.73;;;14.05;;
20527;SDS011;23612;50.894;10.700;2023-11-21T10:25:36;28.05;;;12.85;;
20527;SDS011;23612;50.894;10.700;2023-11-21T10:28:02;30.83;;;15.13;;
20527;SDS011;23612;50.894;10.700;2023-11-21T10:30:35;22.52;;;12.90;;
20527;SDS011;23612;50.894;10.700;2023-11-21T10:33:05;22.42;;;12.60;;
20527;SDS011;23612;50.894;10.700;2023-11-21T10:35:42;23.00;;;12.73;;
20527;SDS011;23612;50.894;10.700;2023-11-21T10:38:12;21.60;;;13.93;;
20527;SDS011;23612;50.894;10.700;2023-11-21T10:40:38;31.17;;;16.05;;
20527;SDS011;23612;50.894;10.700;2023-11-21T10:43:07;31.05;;;15.07;;
20527;SDS011;23612;50.894;10.700;2023-11-21T10:45:34;32.60;;;17.55;;
20527;SDS011;23612;50.894;10.700;2023-11-21T10:48:04;32.40;;;15.57;;
20527;SDS011;23612;50.894;10.700;2023-11-21T10:50:35;36.33;;;15.43;;
20527;SDS011;23612;50.894;10.700;2023-11-21T10:53:02;31.25;;;15.75;;
20527;SDS011;23612;50.894;10.700;2023-11-21T10:55:29;34.75;;;20.20;;
20527;SDS011;23612;50.894;10.700;2023-11-21T10:57:57;33.63;;;16.60;;
20527;SDS011;23612;50.894;10.700;2023-11-21T11:00:25;30.52;;;14.77;;
20527;SDS011;23612;50.894;10.700;2023-11-21T11:02:52;36.63;;;17.38;;
20527;SDS011;23612;50.894;10.700;2023-11-21T11:05:22;33.97;;;15.93;;
20527;SDS011;23612;50.894;10.700;2023-11-21T11:07:55;35.35;;;15.98;;
20527;SDS011;23612;50.894;10.700;2023-11-21T11:10:33;29.88;;;14.68;;
20527;SDS011;23612;50.894;10.700;2023-11-21T11:12:59;32.10;;;18.80;;
20527;SDS011;23612;50.894;10.700;2023-11-21T11:15:26;24.83;;;13.57;;
20527;SDS011;23612;50.894;10.700;2023-11-21T11:17:52;20.67;;;12.40;;
20527;SDS011;23612;50.894;10.700;2023-11-21T11:20:22;21.00;;;11.90;;
20527;SDS011;23612;50.894;10.700;2023-11-21T11:22:56;20.20;;;11.82;;
20527;SDS011;23612;50.894;10.700;2023-11-21T11:28:15;51.20;;;28.25;;
20527;SDS011;23612;50.894;10.700;2023-11-21T11:31:03;26.25;;;15.85;;
20527;SDS011;23612;50.894;10.700;2023-11-21T11:33:42;22.88;;;14.75;;
20527;SDS011;23612;50.894;10.700;2023-11-21T11:36:17;27.58;;;14.23;;
20527;SDS011;23612;50.894;10.700;2023-11-21T11:38:46;19.63;;;12.40;;
20527;SDS011;23612;50.894;10.700;2023-11-21T11:41:14;25.52;;;15.05;;
20527;SDS011;23612;50.894;10.700;2023-11-21T11:43:50;25.50;;;16.58;;
20527;SDS011;23612;50.894;10.700;2023-11-21T11:46:16;19.92;;;13.75;;
20527;SDS011;23612;50.894;10.700;2023-11-21T11:48:41;19.08;;;11.70;;
20527;SDS011;23612;50.894;10.700;2023-11-21T11:51:11;22.45;;;14.18;;
20527;SDS011;23612;50.894;10.700;2023-11-21T11:53:46;24.63;;;13.38;;
20527;SDS011;23612;50.894;10.700;2023-11-21T11:58:51;24.92;;;14.55;;
20527;SDS011;23612;50.894;10.700;2023-11-21T12:01:21;26.88;;;16.42;;
20527;SDS011;23612;50.894;10.700;2023-11-21T12:06:45;34.45;;;18.83;;
20527;SDS011;23612;50.894;10.700;2023-11-21T12:09:32;44.28;;;25.55;;
20527;SDS011;23612;50.894;10.700;2023-11-21T12:11:57;41.40;;;25.00;;
20527;SDS011;23612;50.894;10.700;2023-11-21T12:14:23;39.33;;;21.98;;
20527;SDS011;23612;50.894;10.700;2023-11-21T12:16:48;34.50;;;18.17;;
20527;SDS011;23612;50.894;10.700;2023-11-21T12:19:14;34.00;;;16.50;;
20527;SDS011;23612;50.894;10.700;2023-11-21T12:21:40;30.95;;;14.60;;
20527;SDS011;23612;50.894;10.700;2023-11-21T12:24:06;24.70;;;12.13;;
20527;SDS011;23612;50.894;10.700;2023-11-21T12:26:33;27.75;;;13.40;;
20527;SDS011;23612;50.894;10.700;2023-11-21T12:29:01;28.15;;;15.93;;
20527;SDS011;23612;50.894;10.700;2023-11-21T12:31:29;26.05;;;13.18;;
20527;SDS011;23612;50.894;10.700;2023-11-21T12:33:55;25.73;;;14.02;;
20527;SDS011;23612;50.894;10.700;2023-11-21T12:36:21;28.67;;;14.77;;
20527;SDS011;23612;50.894;10.700;2023-11-21T12:38:47;24.13;;;13.38;;
20527;SDS011;23612;50.894;10.700;2023-11-21T12:41:12;21.48;;;11.70;;
20527;SDS011;23612;50.894;10.700;2023-11-21T12:43:38;25.88;;;12.02;;
20527;SDS011;23612;50.894;10.700;2023-11-21T12:46:13;28.83;;;11.98;;
20527;SDS011;23612;50.894;10.700;2023-11-21T12:48:43;26.35;;;13.50;;
20527;SDS011;23612;50.894;10.700;2023-11-21T12:51:10;21.85;;;11.88;;
20527;SDS011;23612;50.894;10.700;2023-11-21T12:53:37;19.52;;;10.80;;
20527;SDS011;23612;50.894;10.700;2023-11-21T12:56:07;25.60;;;13.07;;
20527;SDS011;23612;50.894;10.700;2023-11-21T12:58:38;19.65;;;12.27;;
20527;SDS011;23612;50.894;10.700;2023-11-21T13:01:05;22.13;;;10.35;;
20527;SDS011;23612;50.894;10.700;2023-11-21T13:03:37;21.27;;;11.07;;
20527;SDS011;23612;50.894;10.700;2023-11-21T13:06:03;16.55;;;9.77;;
20527;SDS011;23612;50.894;10.700;2023-11-21T13:08:30;16.33;;;9.15;;
20527;SDS011;23612;50.894;10.700;2023-11-21T13:10:57;16.60;;;9.00;;
20527;SDS011;23612;50.894;10.700;2023-11-21T13:13:24;17.48;;;8.80;;
20527;SDS011;23612;50.894;10.700;2023-11-21T13:16:10;14.20;;;8.00;;
20527;SDS011;23612;50.894;10.700;2023-11-21T13:18:36;12.88;;;7.88;;
20527;SDS011;23612;50.894;10.700;2023-11-21T13:21:07;11.93;;;7.57;;
20527;SDS011;23612;50.894;10.700;2023-11-21T13:23:40;16.63;;;8.25;;
20527;SDS011;23612;50.894;10.700;2023-11-21T13:26:07;12.23;;;7.95;;
20527;SDS011;23612;50.894;10.700;2023-11-21T13:28:33;21.17;;;9.65;;
20527;SDS011;23612;50.894;10.700;2023-11-21T13:31:00;15.60;;;8.63;;
20527;SDS011;23612;50.894;10.700;2023-11-21T13:33:34;12.95;;;7.85;;
20527;SDS011;23612;50.894;10.700;2023-11-21T13:36:03;13.57;;;8.15;;
20527;SDS011;23612;50.894;10.700;2023-11-21T13:38:32;16.55;;;10.10;;
20527;SDS011;23612;50.894;10.700;2023-11-21T13:41:00;16.00;;;9.23;;
20527;SDS011;23612;50.894;10.700;2023-11-21T13:43:26;27.60;;;19.08;;
20527;SDS011;23612;50.894;10.700;2023-11-21T13:45:53;21.60;;;13.93;;
20527;SDS011;23612;50.894;10.700;2023-11-21T13:48:29;24.10;;;16.15;;
20527;SDS011;23612;50.894;10.700;2023-11-21T13:51:05;22.10;;;14.10;;
20527;SDS011;23612;50.894;10.700;2023-11-21T13:53:45;17.35;;;10.73;;
20527;SDS011;23612;50.894;10.700;2023-11-21T13:56:18;10.30;;;5.63;;
20527;SDS011;23612;50.894;10.700;2023-11-21T13:58:51;4.68;;;2.22;;
20527;SDS011;23612;50.894;10.700;2023-11-21T14:01:18;6.18;;;2.40;;
20527;SDS011;23612;50.894;10.700;2023-11-21T14:03:56;2.42;;;2.20;;
20527;SDS011;23612;50.894;10.700;2023-11-21T14:06:27;2.20;;;2.00;;
20527;SDS011;23612;50.894;10.700;2023-11-21T14:08:59;3.40;;;1.77;;
20527;SDS011;23612;50.894;10.700;2023-11-21T14:11:30;2.47;;;1.63;;
20527;SDS011;23612;50.894;10.700;2023-11-21T14:13:55;1.77;;;1.60;;
20527;SDS011;23612;50.894;10.700;2023-11-21T14:16:21;2.33;;;2.05;;
20527;SDS011;23612;50.894;10.700;2023-11-21T14:18:47;3.05;;;1.90;;
20527;SDS011;23612;50.894;10.700;2023-11-21T14:21:26;4.55;;;2.85;;
20527;SDS011;23612;50.894;10.700;2023-11-21T14:23:52;5.30;;;2.70;;
20527;SDS011;23612;50.894;10.700;2023-11-21T14:26:20;3.95;;;3.05;;
20527;SDS011;23612;50.894;10.700;2023-11-21T14:28:45;4.53;;;3.10;;
20527;SDS011;23612;50.894;10.700;2023-11-21T14:31:13;5.55;;;3.65;;